Dutchtown, Missouri
Current Conditions -  °F | °C
As of 2:53 AM on Wednesday 26 Nov 2014 (Local Time) from KCGI Reporting Station
Clear Clear  
Wind Chill: 21°   Ceiling: Unl
Heat Index: 26°   Visibility: 10mi
Dew Point: 24°   Wind: 5mph
Humidity: 92%   Direction: 100°E
Pressure: 30.14"   Gusts: NA
Location:  37.25°N, 89.66°W
Report Text: KCGI 260853Z AUTO 10004KT 10SM CLR M03/M04 A3014 RMK AO2 SLP208 T10331044 58012 TSNO
Loading
Personal Weather Stations






























Interactive Weather Map New forecast layout! Learn more

10-Day Weather Forecast

Advertisements
Track Severe Weather on mobile